Time;durP1;ratioP1;P1;durP2;ratioP2;P2;SDS_P1;SDS_P2;PMS_P1;PMS_P2;Temp;Humidity;BMP_temperature;BMP_pressure;BME280_temperature;BME280_humidity;BME280_pressure;Samples;Min_cycle;Max_cycle;Signal;HPM_P1;HPM_P2
2022/07/04 00:01:45;;;;;;;;;;;;;;;;;;5061681;28;43712;-80
2022/07/04 00:04:12;;;;;;;;;;;;;;;;;;5062399;28;45815;-79
2022/07/04 00:06:38;;;;;;;;;;;;;;;;;;5059252;28;46925;-81
2022/07/04 00:09:04;;;;;;;;;;;;;;;;;;5061885;28;44216;-81
2022/07/04 00:11:31;;;;;;;;;;;;;;;;;;5064193;28;48088;-79
2022/07/04 00:13:57;;;;;;;;;;;;;;;;;;5055683;28;43729;-79
2022/07/04 00:16:23;;;;;;;;;;;;;;;;;;5060064;28;49855;-81
2022/07/04 00:18:50;;;;;;;;;;;;;;;;;;5060254;28;45617;-78
2022/07/04 00:21:16;;;;;;;;;;;;;;;;;;5064207;28;44110;-79
2022/07/04 00:23:42;;;;;;;;;;;;;;;;;;5062870;28;46474;-79
2022/07/04 00:26:08;;;;;;;;;;;;;;;;;;5056870;28;47007;-81
2022/07/04 00:28:34;;;;;;;;;;;;;;;;;;5059192;28;43025;-78
2022/07/04 00:31:01;;;;;;;;;;;;;;;;;;5062846;28;47630;-78
2022/07/04 00:33:27;;;;;;;;;;;;;;;;;;5061504;28;46180;-79
2022/07/04 00:35:53;;;;;;;;;;;;;;;;;;5063045;28;47507;-79
2022/07/04 00:38:20;;;;;;;;;;;;;;;;;;5056557;28;44657;-78
2022/07/04 00:40:46;;;;;;;;;;;;;;;;;;5061996;28;43848;-81
2022/07/04 00:43:12;;;;;;;;;;;;;;;;;;5060798;28;48845;-81
2022/07/04 00:45:38;;;;;;;;;;;;;;;;;;5062438;28;46980;-80
2022/07/04 00:48:05;;;;;;;;;;;;;;;;;;5052465;28;45534;-79
2022/07/04 00:50:31;;;;;;;;;;;;;;;;;;5046276;28;48053;-80
2022/07/04 00:52:57;;;;;;;;;;;;;;;;;;5063807;28;45745;-79
2022/07/04 00:55:24;;;;;;;;;;;;;;;;;;5061001;28;44618;-79
2022/07/04 00:57:50;;;;;;;;;;;;;;;;;;5055140;28;47739;-79
2022/07/04 01:00:16;;;;;;;;;;;;;;;;;;5062132;28;43369;-79
2022/07/04 01:02:42;;;;;;;;;;;;;;;;;;5062493;28;46418;-79
2022/07/04 01:05:09;;;;;;;;;;;;;;;;;;5051767;28;48350;-81
2022/07/04 01:07:35;;;;;;;;;;;;;;;;;;5061802;28;45503;-80
2022/07/04 01:10:01;;;;;;;;;;;;;;;;;;5056384;28;45112;-79
2022/07/04 01:12:27;;;;;;;;;;;;;;;;;;5058205;28;43800;-78
2022/07/04 01:14:54;;;;;;;;;;;;;;;;;;5059027;28;47410;-81
2022/07/04 01:17:20;;;;;;;;;;;;;;;;;;5061545;28;47924;-82
2022/07/04 01:19:46;;;;;;;;;;;;;;;;;;5065312;28;42984;-79
2022/07/04 01:22:12;;;;;;;;;;;;;;;;;;5061377;28;48541;-79
2022/07/04 01:24:39;;;;;;;;;;;;;;;;;;5060346;28;47277;-79
2022/07/04 01:27:05;;;;;;;;;;;;;;;;;;5061396;28;44157;-79
2022/07/04 01:29:34;;;;;;;;;;;;;;;;;;5061644;28;48911;-81
2022/07/04 01:32:02;;;;;;;;;;;;;;;;;;5064140;28;46848;-79
2022/07/04 01:34:28;;;;;;;;;;;;;;;;;;5063988;28;46436;-79
2022/07/04 01:36:54;;;;;;;;;;;;;;;;;;5062350;28;46250;-79
2022/07/04 01:39:20;;;;;;;;;;;;;;;;;;5050448;28;46371;-80
2022/07/04 01:41:47;;;;;;;;;;;;;;;;;;5061468;28;45950;-79
2022/07/04 01:44:13;;;;;;;;;;;;;;;;;;5064668;28;46334;-79
2022/07/04 01:46:39;;;;;;;;;;;;;;;;;;5062841;28;44797;-79
2022/07/04 01:49:05;;;;;;;;;;;;;;;;;;5063712;28;46419;-78
2022/07/04 01:51:32;;;;;;;;;;;;;;;;;;5062155;28;47292;-82
2022/07/04 01:53:58;;;;;;;;;;;;;;;;;;5065944;28;41956;-81
2022/07/04 01:56:24;;;;;;;;;;;;;;;;;;5060086;28;47003;-80
2022/07/04 01:58:50;;;;;;;;;;;;;;;;;;5063217;28;45026;-79
2022/07/04 02:01:29;;;;;;;;;;;;;;;;;;5063802;28;46220;-79
2022/07/04 02:03:55;;;;;;;;;;;;;;;;;;5063191;28;47345;-81
2022/07/04 02:06:22;;;;;;;;;;;;;;;;;;5066753;28;42626;-79
2022/07/04 02:13:00;;;;;;;;;;;;;;;;;;5066842;28;46994;-81
2022/07/04 02:14:19;;;;;;;;;;;;;;;;;;5063017;28;42340;-81
2022/07/04 02:16:45;;;;;;;;;;;;;;;;;;5062499;28;44755;-80
2022/07/04 02:19:11;;;;;;;;;;;;;;;;;;5067694;28;43730;-80
2022/07/04 02:21:38;;;;;;;;;;;;;;;;;;5068618;28;47692;-79
2022/07/04 02:24:04;;;;;;;;;;;;;;;;;;5065751;28;48154;-79
2022/07/04 02:26:30;;;;;;;;;;;;;;;;;;5063798;28;44247;-82
2022/07/04 02:28:56;;;;;;;;;;;;;;;;;;5064159;28;47473;-79
2022/07/04 02:31:23;;;;;;;;;;;;;;;;;;5065672;28;44526;-80
2022/07/04 02:33:49;;;;;;;;;;;;;;;;;;5064412;28;44198;-79
2022/07/04 02:36:15;;;;;;;;;;;;;;;;;;5062108;28;46432;-81
2022/07/04 02:38:42;;;;;;;;;;;;;;;;;;5068067;28;47899;-79
2022/07/04 02:41:08;;;;;;;;;;;;;;;;;;5065059;28;46136;-79
2022/07/04 02:43:34;;;;;;;;;;;;;;;;;;5064782;28;47985;-79
2022/07/04 02:46:00;;;;;;;;;;;;;;;;;;5063336;28;44752;-79
2022/07/04 02:48:27;;;;;;;;;;;;;;;;;;5062945;28;46825;-81
2022/07/04 02:50:53;;;;;;;;;;;;;;;;;;5065406;28;44822;-81
2022/07/04 02:53:19;;;;;;;;;;;;;;;;;;5064242;28;43907;-80
2022/07/04 02:55:45;;;;;;;;;;;;;;;;;;5062789;28;46444;-80
2022/07/04 02:58:12;;;;;;;;;;;;;;;;;;5066142;28;45225;-80
2022/07/04 03:00:38;;;;;;;;;;;;;;;;;;5067870;28;46693;-79
2022/07/04 03:03:04;;;;;;;;;;;;;;;;;;5060278;28;47071;-79
2022/07/04 03:05:32;;;;;;;;;;;;;;;;;;5063179;28;44992;-79
2022/07/04 03:07:58;;;;;;;;;;;;;;;;;;5065639;28;47044;-81
2022/07/04 03:10:24;;;;;;;;;;;;;;;;;;5065603;28;46281;-80
2022/07/04 03:12:51;;;;;;;;;;;;;;;;;;5058911;28;44510;-80
2022/07/04 03:15:17;;;;;;;;;;;;;;;;;;5064988;28;44723;-80
2022/07/04 03:17:43;;;;;;;;;;;;;;;;;;5065122;28;47999;-79
2022/07/04 03:20:09;;;;;;;;;;;;;;;;;;5061419;28;43216;-79
2022/07/04 03:22:36;;;;;;;;;;;;;;;;;;5047134;28;48459;-79
2022/07/04 03:25:02;;;;;;;;;;;;;;;;;;5061003;28;44959;-79
2022/07/04 03:27:28;;;;;;;;;;;;;;;;;;5063185;28;46254;-81
2022/07/04 03:29:54;;;;;;;;;;;;;;;;;;5063559;28;45145;-78
2022/07/04 03:32:21;;;;;;;;;;;;;;;;;;5062816;28;43746;-80
2022/07/04 03:34:47;;;;;;;;;;;;;;;;;;5063514;28;46389;-81
2022/07/04 03:37:14;;;;;;;;;;;;;;;;;;5064864;28;47407;-80
2022/07/04 03:39:40;;;;;;;;;;;;;;;;;;5061778;28;43753;-79
2022/07/04 03:42:06;;;;;;;;;;;;;;;;;;5062194;28;46451;-79
2022/07/04 03:44:32;;;;;;;;;;;;;;;;;;5064697;28;46077;-80
2022/07/04 03:46:59;;;;;;;;;;;;;;;;;;5060744;28;47422;-81
2022/07/04 03:49:25;;;;;;;;;;;;;;;;;;5065986;28;49140;-80
2022/07/04 03:51:51;;;;;;;;;;;;;;;;;;5062711;28;46401;-81
2022/07/04 03:54:18;;;;;;;;;;;;;;;;;;5061162;28;48624;-81
2022/07/04 03:56:44;;;;;;;;;;;;;;;;;;5062054;28;48109;-78
2022/07/04 03:59:10;;;;;;;;;;;;;;;;;;5066418;28;43673;-82
2022/07/04 04:01:36;;;;;;;;;;;;;;;;;;5063090;28;44870;-81
2022/07/04 04:06:48;;;;;;;;;;;;;;;;;;5064973;28;46357;-79
2022/07/04 04:09:18;;;;;;;;;;;;;;;;;;5063678;28;46905;-79
2022/07/04 04:11:45;;;;;;;;;;;;;;;;;;5058688;28;46400;-79
2022/07/04 04:14:12;;;;;;;;;;;;;;;;;;5064583;28;47364;-81
2022/07/04 04:16:38;;;;;;;;;;;;;;;;;;5063965;28;46999;-79
2022/07/04 04:19:07;;;;;;;;;;;;;;;;;;5066542;28;43597;-79
2022/07/04 04:21:34;;;;;;;;;;;;;;;;;;5065504;28;46475;-82
2022/07/04 04:24:00;;;;;;;;;;;;;;;;;;5065474;28;45297;-81
2022/07/04 04:26:26;;;;;;;;;;;;;;;;;;5062435;28;43729;-80
2022/07/04 04:28:52;;;;;;;;;;;;;;;;;;5062055;28;46747;-80
2022/07/04 04:31:19;;;;;;;;;;;;;;;;;;5060075;28;41197;-81
2022/07/04 04:33:45;;;;;;;;;;;;;;;;;;5063569;28;46089;-78
2022/07/04 04:36:11;;;;;;;;;;;;;;;;;;5064552;28;47009;-80
2022/07/04 04:38:37;;;;;;;;;;;;;;;;;;5066278;28;43737;-79
2022/07/04 04:41:04;;;;;;;;;;;;;;;;;;5063490;28;46366;-79
2022/07/04 04:43:30;;;;;;;;;;;;;;;;;;5062119;28;45227;-79
2022/07/04 04:45:56;;;;;;;;;;;;;;;;;;5052323;28;44894;-80
2022/07/04 04:48:23;;;;;;;;;;;;;;;;;;5062257;28;43911;-80
2022/07/04 04:50:49;;;;;;;;;;;;;;;;;;5060459;28;42568;-81
2022/07/04 04:53:15;;;;;;;;;;;;;;;;;;5065631;28;47028;-81
2022/07/04 04:55:41;;;;;;;;;;;;;;;;;;5063847;28;45350;-82
2022/07/04 04:58:08;;;;;;;;;;;;;;;;;;5061168;28;44675;-80
2022/07/04 05:00:34;;;;;;;;;;;;;;;;;;5063666;28;45864;-81
2022/07/04 05:03:00;;;;;;;;;;;;;;;;;;5062501;28;48165;-79
2022/07/04 05:05:26;;;;;;;;;;;;;;;;;;5060184;28;42867;-79
2022/07/04 05:07:53;;;;;;;;;;;;;;;;;;5065689;28;46751;-79
2022/07/04 05:10:19;;;;;;;;;;;;;;;;;;5061347;28;43654;-80
2022/07/04 05:12:46;;;;;;;;;;;;;;;;;;5067135;28;47063;-81
2022/07/04 05:15:12;;;;;;;;;;;;;;;;;;5063414;28;46574;-79
2022/07/04 05:17:38;;;;;;;;;;;;;;;;;;5063366;28;43725;-82
2022/07/04 05:20:04;;;;;;;;;;;;;;;;;;5053261;28;46487;-79
2022/07/04 05:22:31;;;;;;;;;;;;;;;;;;5052138;28;47176;-81
2022/07/04 05:24:57;;;;;;;;;;;;;;;;;;5065637;28;45012;-82
2022/07/04 05:27:23;;;;;;;;;;;;;;;;;;5064865;28;45718;-81
2022/07/04 05:29:49;;;;;;;;;;;;;;;;;;5061404;28;49941;-81
2022/07/04 05:32:20;;;;;;;;;;;;;;;;;;5066797;28;45620;-80
2022/07/04 05:34:46;;;;;;;;;;;;;;;;;;5065060;28;48327;-80
2022/07/04 05:37:12;;;;;;;;;;;;;;;;;;5064548;28;44871;-80
2022/07/04 05:39:39;;;;;;;;;;;;;;;;;;5066377;28;47418;-80
2022/07/04 05:42:05;;;;;;;;;;;;;;;;;;5068398;28;46302;-79
2022/07/04 05:44:31;;;;;;;;;;;;;;;;;;5066261;28;44062;-80
2022/07/04 05:46:57;;;;;;;;;;;;;;;;;;5069939;28;46100;-79
2022/07/04 05:49:24;;;;;;;;;;;;;;;;;;5064071;28;45698;-80
2022/07/04 05:51:50;;;;;;;;;;;;;;;;;;5070456;28;44110;-80
2022/07/04 05:54:17;;;;;;;;;;;;;;;;;;5068444;28;48427;-82
2022/07/04 05:56:43;;;;;;;;;;;;;;;;;;5068365;28;43985;-83
2022/07/04 05:59:09;;;;;;;;;;;;;;;;;;5065510;28;47441;-80
2022/07/04 06:01:36;;;;;;;;;;;;;;;;;;5069593;28;47985;-82
2022/07/04 06:04:02;;;;;;;;;;;;;;;;;;5067524;28;44266;-80
2022/07/04 06:06:29;;;;;;;;;;;;;;;;;;5062446;28;47769;-83
2022/07/04 06:08:56;;;;;;;;;;;;;;;;;;5061665;28;47950;-80
2022/07/04 06:11:22;;;;;;;;;;;;;;;;;;5065317;28;44555;-80
2022/07/04 06:13:48;;;;;;;;;;;;;;;;;;5066972;28;48125;-80
2022/07/04 06:16:14;;;;;;;;;;;;;;;;;;5063314;28;44992;-80
2022/07/04 06:18:41;;;;;;;;;;;;;;;;;;5066125;28;46638;-80
2022/07/04 06:21:17;;;;;;;;;;;;;;;;;;5069806;28;45649;-80
2022/07/04 06:23:43;;;;;;;;;;;;;;;;;;5064021;28;42452;-81
2022/07/04 06:26:10;;;;;;;;;;;;;;;;;;5054972;28;46331;-80
2022/07/04 06:28:36;;;;;;;;;;;;;;;;;;5057489;28;44410;-84
2022/07/04 06:31:12;;;;;;;;;;;;;;;;;;5060322;28;43414;-80
2022/07/04 06:36:23;;;;;;;;;;;;;;;;;;5063765;28;47602;-82
2022/07/04 06:38:49;;;;;;;;;;;;;;;;;;5064565;28;47552;-79
2022/07/04 06:41:16;;;;;;;;;;;;;;;;;;5061095;28;46882;-80
2022/07/04 06:43:42;;;;;;;;;;;;;;;;;;5064422;28;44576;-80
2022/07/04 06:46:08;;;;;;;;;;;;;;;;;;5060181;28;44207;-81
2022/07/04 06:48:36;;;;;;;;;;;;;;;;;;5062615;28;48520;-78
2022/07/04 06:51:02;;;;;;;;;;;;;;;;;;5058708;28;43620;-80
2022/07/04 06:53:28;;;;;;;;;;;;;;;;;;5064790;28;46115;-81
2022/07/04 06:55:54;;;;;;;;;;;;;;;;;;5064396;28;45948;-79
2022/07/04 06:58:21;;;;;;;;;;;;;;;;;;5066120;28;43959;-82
2022/07/04 07:00:47;;;;;;;;;;;;;;;;;;5065569;28;46974;-80
2022/07/04 07:03:13;;;;;;;;;;;;;;;;;;5064101;28;45117;-81
2022/07/04 07:05:40;;;;;;;;;;;;;;;;;;5063681;28;47518;-79
2022/07/04 07:08:26;;;;;;;;;;;;;;;;;;5064286;28;19932;-80
2022/07/04 07:10:53;;;;;;;;;;;;;;;;;;5062628;28;42492;-80
2022/07/04 07:13:19;;;;;;;;;;;;;;;;;;5060393;28;46313;-83
2022/07/04 07:15:45;;;;;;;;;;;;;;;;;;5063974;28;46188;-80
2022/07/04 07:18:12;;;;;;;;;;;;;;;;;;5060230;28;42130;-79
2022/07/04 07:20:38;;;;;;;;;;;;;;;;;;5051569;28;46956;-79
2022/07/04 07:23:04;;;;;;;;;;;;;;;;;;5057007;28;43826;-79
2022/07/04 07:25:30;;;;;;;;;;;;;;;;;;5060957;28;46165;-80
2022/07/04 07:27:57;;;;;;;;;;;;;;;;;;5059270;28;46957;-79
2022/07/04 07:30:23;;;;;;;;;;;;;;;;;;5065272;28;42268;-79
2022/07/04 07:32:49;;;;;;;;;;;;;;;;;;5058386;28;45949;-80
2022/07/04 07:35:16;;;;;;;;;;;;;;;;;;5061120;28;46395;-84
2022/07/04 07:37:42;;;;;;;;;;;;;;;;;;5062778;28;42116;-82
2022/07/04 07:40:08;;;;;;;;;;;;;;;;;;5055222;28;47450;-81
2022/07/04 07:42:35;;;;;;;;;;;;;;;;;;5059464;28;44870;-79
2022/07/04 07:45:01;;;;;;;;;;;;;;;;;;5058941;28;47529;-79
2022/07/04 07:47:28;;;;;;;;;;;;;;;;;;5058102;28;47952;-78
2022/07/04 07:49:55;;;;;;;;;;;;;;;;;;5057668;28;44776;-78
2022/07/04 07:52:21;;;;;;;;;;;;;;;;;;5061676;28;44896;-78
2022/07/04 07:54:52;;;;;;;;;;;;;;;;;;5063514;28;45826;-79
2022/07/04 07:57:26;;;;;;;;;;;;;;;;;;5060577;28;44636;-77
2022/07/04 07:59:53;;;;;;;;;;;;;;;;;;5061253;28;46418;-78
2022/07/04 08:02:19;;;;;;;;;;;;;;;;;;5062592;28;48403;-81
2022/07/04 08:04:45;;;;;;;;;;;;;;;;;;5062184;28;46345;-80
2022/07/04 08:07:12;;;;;;;;;;;;;;;;;;5060156;28;47294;-79
2022/07/04 08:09:47;;;;;;;;;;;;;;;;;;5059920;28;43099;-82
2022/07/04 08:12:14;;;;;;;;;;;;;;;;;;5059339;28;44844;-82
2022/07/04 08:14:41;;;;;;;;;;;;;;;;;;5059426;28;47316;-77
2022/07/04 08:17:10;;;;;;;;;;;;;;;;;;5057785;28;42656;-77
2022/07/04 08:19:37;;;;;;;;;;;;;;;;;;5062947;28;46529;-80
2022/07/04 08:22:03;;;;;;;;;;;;;;;;;;5060500;28;49666;-78
2022/07/04 08:24:40;;;;;;;;;;;;;;;;;;5053003;28;43765;-77
2022/07/04 08:27:06;;;;;;;;;;;;;;;;;;5057274;28;46821;-80
2022/07/04 08:29:32;;;;;;;;;;;;;;;;;;5059863;28;43719;-79
2022/07/04 08:31:58;;;;;;;;;;;;;;;;;;5054100;28;46052;-82
2022/07/04 08:34:25;;;;;;;;;;;;;;;;;;5061568;28;47279;-81
2022/07/04 08:36:51;;;;;;;;;;;;;;;;;;5060922;28;43812;-79
2022/07/04 08:39:22;;;;;;;;;;;;;;;;;;5051041;28;35585;-78
2022/07/04 08:41:48;;;;;;;;;;;;;;;;;;5059513;28;46591;-78
2022/07/04 08:44:14;;;;;;;;;;;;;;;;;;5055092;28;42989;-78
2022/07/04 08:46:40;;;;;;;;;;;;;;;;;;5049852;28;44727;-75
2022/07/04 08:49:07;;;;;;;;;;;;;;;;;;5047817;28;45484;-77
2022/07/04 08:51:33;;;;;;;;;;;;;;;;;;5057365;28;46323;-77
2022/07/04 08:54:00;;;;;;;;;;;;;;;;;;5049646;28;48002;-77
2022/07/04 08:59:11;;;;;;;;;;;;;;;;;;5046929;28;46940;-78
2022/07/04 09:01:38;;;;;;;;;;;;;;;;;;5045412;28;47030;-77
2022/07/04 09:04:04;;;;;;;;;;;;;;;;;;5048637;28;44860;-76
2022/07/04 09:06:31;;;;;;;;;;;;;;;;;;5058364;28;47532;-78
2022/07/04 09:08:57;;;;;;;;;;;;;;;;;;5060223;28;34670;-78
2022/07/04 09:11:23;;;;;;;;;;;;;;;;;;5053080;28;48108;-77
2022/07/04 09:13:49;;;;;;;;;;;;;;;;;;5063009;28;48970;-77
2022/07/04 09:16:16;;;;;;;;;;;;;;;;;;5061841;28;43339;-78
2022/07/04 09:18:42;;;;;;;;;;;;;;;;;;5043551;28;46902;-78
2022/07/04 09:21:08;;;;;;;;;;;;;;;;;;5047151;28;46387;-77
2022/07/04 09:23:34;;;;;;;;;;;;;;;;;;5047024;28;44890;-77
2022/07/04 09:26:01;;;;;;;;;;;;;;;;;;5057512;28;47525;-78
2022/07/04 09:28:28;;;;;;;;;;;;;;;;;;5060618;28;48023;-77
2022/07/04 09:30:54;;;;;;;;;;;;;;;;;;5060796;28;46472;-77
2022/07/04 09:33:21;;;;;;;;;;;;;;;;;;5062189;28;47281;-77
2022/07/04 09:35:47;;;;;;;;;;;;;;;;;;5045049;28;42451;-76
2022/07/04 09:38:13;;;;;;;;;;;;;;;;;;5058635;28;48167;-77
2022/07/04 09:43:25;;;;;;;;;;;;;;;;;;5057616;28;44990;-77
2022/07/04 09:45:54;;;;;;;;;;;;;;;;;;5058094;28;47519;-78
2022/07/04 09:48:20;;;;;;;;;;;;;;;;;;5060721;28;48419;-77
2022/07/04 09:50:46;;;;;;;;;;;;;;;;;;5058352;28;44857;-77
2022/07/04 09:53:12;;;;;;;;;;;;;;;;;;5057745;28;48067;-77
2022/07/04 09:55:39;;;;;;;;;;;;;;;;;;5063094;28;42092;-77
2022/07/04 09:58:05;;;;;;;;;;;;;;;;;;5060586;28;45805;-77
2022/07/04 10:00:31;;;;;;;;;;;;;;;;;;5055224;28;45380;-76
2022/07/04 10:02:57;;;;;;;;;;;;;;;;;;5061191;28;43531;-77
2022/07/04 10:05:24;;;;;;;;;;;;;;;;;;5062220;28;45994;-78
2022/07/04 10:07:50;;;;;;;;;;;;;;;;;;5056394;28;47802;-77
2022/07/04 10:10:16;;;;;;;;;;;;;;;;;;5041932;28;43534;-78
2022/07/04 10:12:43;;;;;;;;;;;;;;;;;;5042113;28;47484;-77
2022/07/04 10:15:09;;;;;;;;;;;;;;;;;;5047768;28;44805;-78
2022/07/04 10:17:35;;;;;;;;;;;;;;;;;;5057985;28;47554;-77
2022/07/04 10:20:01;;;;;;;;;;;;;;;;;;5057867;28;47955;-77
2022/07/04 10:22:27;;;;;;;;;;;;;;;;;;5056825;28;43818;-78
2022/07/04 10:24:54;;;;;;;;;;;;;;;;;;5063424;28;47626;-78
2022/07/04 10:27:20;;;;;;;;;;;;;;;;;;5053535;28;48176;-77
2022/07/04 10:29:46;;;;;;;;;;;;;;;;;;5061753;28;44851;-77
2022/07/04 10:32:13;;;;;;;;;;;;;;;;;;5064354;28;47351;-78
2022/07/04 10:34:39;;;;;;;;;;;;;;;;;;5061733;28;45233;-78
2022/07/04 10:37:05;;;;;;;;;;;;;;;;;;5062775;28;46439;-78
2022/07/04 10:39:31;;;;;;;;;;;;;;;;;;5061381;28;46774;-77
2022/07/04 10:42:01;;;;;;;;;;;;;;;;;;5064737;28;45843;-78
2022/07/04 10:44:35;;;;;;;;;;;;;;;;;;5062920;28;46357;-78
2022/07/04 10:47:01;;;;;;;;;;;;;;;;;;5062616;28;48417;-78
2022/07/04 10:49:27;;;;;;;;;;;;;;;;;;5060777;28;45149;-78
2022/07/04 10:51:54;;;;;;;;;;;;;;;;;;5059832;28;46268;-78
2022/07/04 10:54:21;;;;;;;;;;;;;;;;;;5065468;28;48224;-79
2022/07/04 10:56:47;;;;;;;;;;;;;;;;;;5062213;28;44916;-77
2022/07/04 10:59:13;;;;;;;;;;;;;;;;;;5059985;28;47007;-78
2022/07/04 11:01:43;;;;;;;;;;;;;;;;;;5058228;28;45240;-78
2022/07/04 11:04:26;;;;;;;;;;;;;;;;;;5052584;28;46407;-80
2022/07/04 11:06:55;;;;;;;;;;;;;;;;;;5060420;28;45094;-79
2022/07/04 11:09:21;;;;;;;;;;;;;;;;;;5059876;28;43747;-77
2022/07/04 11:11:47;;;;;;;;;;;;;;;;;;5053936;28;47839;-76
2022/07/04 11:14:13;;;;;;;;;;;;;;;;;;5056256;28;48095;-77
2022/07/04 11:16:40;;;;;;;;;;;;;;;;;;5049632;28;43648;-78
2022/07/04 11:19:06;;;;;;;;;;;;;;;;;;5063304;28;48649;-77
2022/07/04 11:21:33;;;;;;;;;;;;;;;;;;5051251;28;43447;-78
2022/07/04 11:24:00;;;;;;;;;;;;;;;;;;5055677;28;47564;-78
2022/07/04 11:26:26;;;;;;;;;;;;;;;;;;5057398;28;46256;-78
2022/07/04 11:28:52;;;;;;;;;;;;;;;;;;5055082;28;44687;-77
2022/07/04 11:31:19;;;;;;;;;;;;;;;;;;5059284;28;49783;-77
2022/07/04 11:33:45;;;;;;;;;;;;;;;;;;5048747;28;42500;-77
2022/07/04 11:36:11;;;;;;;;;;;;;;;;;;5053366;28;44997;-77
2022/07/04 11:38:42;;;;;;;;;;;;;;;;;;5057216;28;46437;-77
2022/07/04 11:46:38;;;;;;;;;;;;;;;;;;5058184;28;43564;-77
2022/07/04 11:49:04;;;;;;;;;;;;;;;;;;5062276;28;45535;-77
2022/07/04 11:51:31;;;;;;;;;;;;;;;;;;5060680;28;47752;-78
2022/07/04 11:53:57;;;;;;;;;;;;;;;;;;5062442;28;46439;-77
2022/07/04 11:56:43;;;;;;;;;;;;;;;;;;5060380;28;19928;-77
2022/07/04 11:59:09;;;;;;;;;;;;;;;;;;5059210;28;47395;-77
2022/07/04 12:01:36;;;;;;;;;;;;;;;;;;5062072;28;46870;-77
2022/07/04 12:04:02;;;;;;;;;;;;;;;;;;5060971;28;47541;-78
2022/07/04 12:06:30;;;;;;;;;;;;;;;;;;5054541;28;46857;-78
2022/07/04 12:08:56;;;;;;;;;;;;;;;;;;5056396;28;43639;-77
2022/07/04 12:11:22;;;;;;;;;;;;;;;;;;5058787;28;48043;-78
2022/07/04 12:13:50;;;;;;;;;;;;;;;;;;5051846;28;46999;-77
2022/07/04 12:16:17;;;;;;;;;;;;;;;;;;5042638;28;44818;-78
2022/07/04 12:18:43;;;;;;;;;;;;;;;;;;5057076;28;46046;-78
2022/07/04 12:21:09;;;;;;;;;;;;;;;;;;5059598;28;47302;-78
2022/07/04 12:23:36;;;;;;;;;;;;;;;;;;5051660;28;42512;-78
2022/07/04 12:26:03;;;;;;;;;;;;;;;;;;5054303;28;47961;-78
2022/07/04 12:28:29;;;;;;;;;;;;;;;;;;5060327;28;44103;-77
2022/07/04 12:30:55;;;;;;;;;;;;;;;;;;5062465;28;45414;-77
2022/07/04 12:33:22;;;;;;;;;;;;;;;;;;5059532;28;47218;-78
2022/07/04 12:35:48;;;;;;;;;;;;;;;;;;5062407;28;44088;-77
2022/07/04 12:38:15;;;;;;;;;;;;;;;;;;5060413;28;45986;-77
2022/07/04 12:40:41;;;;;;;;;;;;;;;;;;5058133;28;45031;-77
2022/07/04 12:43:08;;;;;;;;;;;;;;;;;;5058959;28;43167;-78
2022/07/04 12:45:35;;;;;;;;;;;;;;;;;;5060564;28;45800;-78
2022/07/04 12:48:01;;;;;;;;;;;;;;;;;;5060393;28;44669;-78
2022/07/04 12:50:27;;;;;;;;;;;;;;;;;;5057788;28;46890;-78
2022/07/04 12:52:54;;;;;;;;;;;;;;;;;;5056051;28;46232;-78
2022/07/04 12:55:24;;;;;;;;;;;;;;;;;;5058598;28;43824;-78
2022/07/04 12:57:50;;;;;;;;;;;;;;;;;;5060012;28;47640;-77
2022/07/04 13:00:17;;;;;;;;;;;;;;;;;;5054897;28;45928;-78
2022/07/04 13:03:01;;;;;;;;;;;;;;;;;;5052254;28;44433;-78
2022/07/04 13:05:27;;;;;;;;;;;;;;;;;;5054731;28;45528;-77
2022/07/04 13:07:53;;;;;;;;;;;;;;;;;;5060719;28;45611;-78
2022/07/04 13:10:20;;;;;;;;;;;;;;;;;;5055632;28;45027;-78
2022/07/04 13:12:46;;;;;;;;;;;;;;;;;;5059111;28;46726;-77
2022/07/04 13:15:12;;;;;;;;;;;;;;;;;;5058452;28;41751;-77
2022/07/04 13:17:39;;;;;;;;;;;;;;;;;;5040582;28;47590;-78
2022/07/04 13:20:05;;;;;;;;;;;;;;;;;;5062362;28;45457;-77
2022/07/04 13:22:31;;;;;;;;;;;;;;;;;;5057755;28;44705;-77
2022/07/04 13:25:00;;;;;;;;;;;;;;;;;;5060079;28;45312;-77
2022/07/04 13:27:26;;;;;;;;;;;;;;;;;;5061864;28;46141;-76
2022/07/04 13:29:53;;;;;;;;;;;;;;;;;;5062390;28;46489;-77
2022/07/04 13:32:19;;;;;;;;;;;;;;;;;;5054464;28;45636;-78
2022/07/04 13:34:45;;;;;;;;;;;;;;;;;;5060519;28;42941;-77
2022/07/04 13:37:11;;;;;;;;;;;;;;;;;;5058871;28;46758;-77
2022/07/04 13:39:37;;;;;;;;;;;;;;;;;;5061345;28;46727;-77
2022/07/04 13:45:04;;;;;;;;;;;;;;;;;;5061137;28;46789;-78
2022/07/04 13:47:30;;;;;;;;;;;;;;;;;;5058050;28;48265;-77
2022/07/04 13:49:57;;;;;;;;;;;;;;;;;;5051444;28;44248;-78
2022/07/04 13:52:23;;;;;;;;;;;;;;;;;;5039969;28;45189;-78
2022/07/04 13:54:49;;;;;;;;;;;;;;;;;;5053870;28;44496;-77
2022/07/04 13:57:16;;;;;;;;;;;;;;;;;;5056584;28;47565;-78
2022/07/04 13:59:42;;;;;;;;;;;;;;;;;;5064057;28;47381;-78
2022/07/04 14:02:08;;;;;;;;;;;;;;;;;;5057830;28;45315;-78
2022/07/04 14:04:35;;;;;;;;;;;;;;;;;;5065307;28;47717;-78
2022/07/04 14:07:01;;;;;;;;;;;;;;;;;;5064427;28;47002;-78
2022/07/04 14:09:27;;;;;;;;;;;;;;;;;;5064021;28;43755;-77
2022/07/04 14:11:54;;;;;;;;;;;;;;;;;;5065459;28;46456;-78
2022/07/04 14:14:20;;;;;;;;;;;;;;;;;;5063226;28;44739;-78
2022/07/04 14:16:47;;;;;;;;;;;;;;;;;;5057890;28;46440;-78
2022/07/04 14:19:14;;;;;;;;;;;;;;;;;;5056065;28;46863;-78
2022/07/04 14:21:40;;;;;;;;;;;;;;;;;;5044194;28;44692;-77
2022/07/04 14:24:06;;;;;;;;;;;;;;;;;;5058017;28;46519;-77
2022/07/04 14:26:32;;;;;;;;;;;;;;;;;;5058859;28;46968;-78
2022/07/04 14:28:59;;;;;;;;;;;;;;;;;;5058730;28;45143;-77
2022/07/04 14:31:25;;;;;;;;;;;;;;;;;;5059753;28;47392;-78
2022/07/04 14:33:51;;;;;;;;;;;;;;;;;;5058543;28;48642;-79
2022/07/04 14:36:18;;;;;;;;;;;;;;;;;;5058337;28;47794;-79
2022/07/04 14:38:44;;;;;;;;;;;;;;;;;;5062625;28;45872;-78
2022/07/04 14:41:10;;;;;;;;;;;;;;;;;;5055506;28;43850;-78
2022/07/04 14:43:37;;;;;;;;;;;;;;;;;;5061463;28;46897;-78
2022/07/04 14:46:07;;;;;;;;;;;;;;;;;;5063110;28;45009;-79
2022/07/04 14:48:33;;;;;;;;;;;;;;;;;;5062844;28;43131;-79
2022/07/04 14:50:59;;;;;;;;;;;;;;;;;;5063531;28;47569;-79
2022/07/04 14:53:26;;;;;;;;;;;;;;;;;;5049068;28;48550;-79
2022/07/04 14:55:52;;;;;;;;;;;;;;;;;;5058100;28;45165;-78
2022/07/04 14:58:18;;;;;;;;;;;;;;;;;;5054069;28;46997;-80
2022/07/04 15:00:45;;;;;;;;;;;;;;;;;;5063731;28;44787;-79
2022/07/04 15:03:12;;;;;;;;;;;;;;;;;;5054909;28;47413;-78
2022/07/04 15:05:39;;;;;;;;;;;;;;;;;;5041872;28;48140;-79
2022/07/04 15:08:05;;;;;;;;;;;;;;;;;;5062376;28;44813;-78
2022/07/04 15:10:31;;;;;;;;;;;;;;;;;;5053686;28;47502;-79
2022/07/04 15:13:18;;;;;;;;;;;;;;;;;;5065668;28;19936;-79
2022/07/04 15:15:44;;;;;;;;;;;;;;;;;;5045556;28;45154;-77
2022/07/04 15:18:17;;;;;;;;;;;;;;;;;;5042646;28;46894;-79
2022/07/04 15:26:13;;;;;;;;;;;;;;;;;;5052532;28;47004;-79
2022/07/04 15:28:39;;;;;;;;;;;;;;;;;;5062640;28;43853;-79
2022/07/04 15:31:06;;;;;;;;;;;;;;;;;;5061218;28;45423;-79
2022/07/04 15:33:32;;;;;;;;;;;;;;;;;;5052185;28;46526;-80
2022/07/04 15:35:58;;;;;;;;;;;;;;;;;;5062903;28;43139;-80
2022/07/04 15:38:25;;;;;;;;;;;;;;;;;;5054473;28;47555;-80
2022/07/04 15:40:51;;;;;;;;;;;;;;;;;;5060931;28;43643;-79
2022/07/04 15:43:17;;;;;;;;;;;;;;;;;;5057782;28;44570;-79
2022/07/04 15:45:44;;;;;;;;;;;;;;;;;;5057138;28;45627;-78
2022/07/04 15:48:10;;;;;;;;;;;;;;;;;;5055684;28;45469;-79
2022/07/04 15:50:36;;;;;;;;;;;;;;;;;;5051281;28;44307;-80
2022/07/04 15:53:03;;;;;;;;;;;;;;;;;;5054810;28;48214;-80
2022/07/04 15:55:29;;;;;;;;;;;;;;;;;;5059825;28;44063;-79
2022/07/04 15:57:55;;;;;;;;;;;;;;;;;;5057446;28;49450;-80
2022/07/04 16:00:21;;;;;;;;;;;;;;;;;;5058857;28;46007;-81
2022/07/04 16:02:48;;;;;;;;;;;;;;;;;;5051708;28;47039;-80
2022/07/04 16:05:14;;;;;;;;;;;;;;;;;;5057992;28;46998;-79
2022/07/04 16:07:41;;;;;;;;;;;;;;;;;;5061021;28;41959;-79
2022/07/04 16:10:07;;;;;;;;;;;;;;;;;;5062744;28;48046;-80
2022/07/04 16:12:34;;;;;;;;;;;;;;;;;;5059972;28;47032;-80
2022/07/04 16:15:00;;;;;;;;;;;;;;;;;;5058567;28;44694;-80
2022/07/04 16:17:26;;;;;;;;;;;;;;;;;;5054121;28;46143;-80
2022/07/04 16:19:52;;;;;;;;;;;;;;;;;;5060953;28;46929;-80
2022/07/04 16:22:19;;;;;;;;;;;;;;;;;;5046088;28;46288;-80
2022/07/04 16:24:45;;;;;;;;;;;;;;;;;;5060171;28;49847;-79
2022/07/04 16:27:11;;;;;;;;;;;;;;;;;;5062855;28;43177;-80
2022/07/04 16:29:38;;;;;;;;;;;;;;;;;;5062032;28;47984;-79
2022/07/04 16:32:04;;;;;;;;;;;;;;;;;;5064062;28;48063;-79
2022/07/04 16:34:30;;;;;;;;;;;;;;;;;;5061266;28;43187;-80
2022/07/04 16:36:56;;;;;;;;;;;;;;;;;;5063500;28;47484;-80
2022/07/04 16:39:25;;;;;;;;;;;;;;;;;;5064988;28;45775;-79
2022/07/04 16:41:51;;;;;;;;;;;;;;;;;;5062212;28;42994;-79
2022/07/04 16:44:17;;;;;;;;;;;;;;;;;;5062096;28;46797;-79
2022/07/04 16:46:44;;;;;;;;;;;;;;;;;;5062420;28;43713;-79
2022/07/04 16:49:11;;;;;;;;;;;;;;;;;;5063314;28;46344;-80
2022/07/04 16:51:57;;;;;;;;;;;;;;;;;;5065374;28;19939;-79
2022/07/04 16:54:45;;;;;;;;;;;;;;;;;;5062454;28;41797;-80
2022/07/04 16:57:10;;;;;;;;;;;;;;;;;;5057241;28;48030;-79
2022/07/04 16:59:37;;;;;;;;;;;;;;;;;;5059433;28;46820;-80
2022/07/04 17:02:03;;;;;;;;;;;;;;;;;;5056934;28;43952;-80
2022/07/04 17:04:30;;;;;;;;;;;;;;;;;;5056906;28;48222;-79
2022/07/04 17:07:01;;;;;;;;;;;;;;;;;;5065407;28;46273;-78
2022/07/04 17:09:28;;;;;;;;;;;;;;;;;;5063604;28;44965;-77
2022/07/04 17:11:54;;;;;;;;;;;;;;;;;;5061584;28;46827;-80